AirNav   Pilot Hours Calculator
 
 417 users online  

3OK3 Cedar Crest Heliport
Locust Grove, Oklahoma, USA

GOING TO LOCUST GROVE?


FAA INFORMATION EFFECTIVE 22 APRIL 2021

Location

FAA Identifier: 3OK3
Lat/Long: 36-06-18.3490N 095-14-06.8640W
36-06.305817N 095-14.114400W
36.1050969,-95.2352400
(estimated)
Elevation: 582 ft. / 177 m (estimated)
Variation: 06E (1985)
From city: 6 miles SW of LOCUST GROVE, OK
Time zone: UTC -5 (UTC -6 during Standard Time)
Zip code: 74352

Heliport Operations

Heliport use: Private use. Permission required prior to landing
Activation date: 03/1991
Control tower: no
ARTCC: KANSAS CITY CENTER
FSS: MC ALESTER FLIGHT SERVICE STATION
Attendance: CONTINUOUS
Wind indicator: yes
Segmented circle: no
Lights: FOR HELIPAD LGTS CALL 918-386-2252.
Beacon: STROBE LGT. FOR STROBE LGT CALL 918-386-2252.

Heliport Communications

WX AWOS-3PT at H71 (9 nm NW): 120.1 (918-476-0517)
WX AWOS-3P at TQH (15 nm SE): 118.425 (918-453-2729)
WX AWOS-3 at GCM (16 nm NW): 119.925 (918-343-0184)

Nearby radio navigation aids

VOR radial/distance  VOR name  Freq  Var
TULr094/27.3TULSA VORTAC114.4008E
OKMr043/39.4OKMULGEE VOR/DME114.9008E

 
NDB name  Hdg/Dist  Freq  Var  ID
SILOAM SPRINGS258/36.528404ESLG ... .-.. --.

Heliport Services

Runway Information

Helipad H1

Dimensions: 20 x 20 ft. / 6 x 6 m
Surface: turf
Runway edge lights: non-standard
CORNER LGTS.
Latitude: 36-06.305817N
Longitude: 095-14.114400W
Elevation: 582.0 ft.
Traffic pattern: leftleft

Heliport Ownership and Management from official FAA records

Ownership: Privately-owned
Owner: CEDAR CREST COUNTRY CLUB
260 ELM BLVD.
LOCUST GROVE, OK 74352
Phone 918-386-2252
Manager: JODI DUNHAM
260 ELM BLVD
LOCUST GROVE, OK 74352
Phone (918) 386-2699
JODI DUNHAM 91 CREST DR LOCUST GROVE, OK 74352, 918-386-2699 SJDUNHAM@FAIRPOINT.NET

Additional Remarks

A52-H1 35 FT MKD PLINE 200 FT EAST OF HELIPAD.
FOR CD CTC TULSA APCH AT 918-831-6714/6720.

Instrument Procedures

There are no published instrument procedures at 3OK3.

Some nearby airports with instrument procedures:

H71 - Mid-America Industrial Airport (9 nm NW)
H68 - Hefner-Easley Airport (10 nm SW)
KTQH - Tahlequah Municipal Airport (15 nm SE)
KGCM - Claremore Regional Airport (16 nm NW)
KMKO - Muskogee-Davis Regional Airport (28 nm S)
 
Loc | Ops | Rwys | IFR | FBO | Links
Com | Nav | Svcs | Stats | Notes
Area around 3OK3 (Cedar Crest Heliport)
 
Road maps at: MapQuest Bing Google
 
Aerial photo
No photo
 
Sectional chart

 
Airport distance calculator
Flying to Cedar Crest Heliport? Find the distance to fly.

From to 3OK3

Sunrise and sunset
Times for 09-May-2021
 Local
(UTC-5)
 Zulu
(UTC)
Morning civil twilight05:5310:53
Sunrise06:2111:21
Sunset20:1401:14
Evening civil twilight20:4201:42

Current date and time
Zulu (UTC)  09-May-2021 07:35:00
Local (UTC-5)  09-May-2021 02:35:00
 
METAR
KH71 
9nm NW 
090715Z AUTO 18016G24KT 10SM OVC035 25/19 A2957 RMK AO2
KTQH 
15nm SE 
090715Z AUTO 18012G17KT 10SM OVC037 22/18 A2964 RMK AO2
KGCM 
17nm NW 
090715Z AUTO 19013G18KT 10SM BKN033 BKN044 23/18 A2959 RMK AO2
TAF
KTUL 
32nm W 
090520Z 0906/1006 17018KT P6SM SCT050 BKN250 WS020/20050KT FM090800 24017G27KT P6SM BKN035 WS020/22050KT FM091000 28016G26KT P6SM VCTS BKN030CB FM091200 31015G25KT P6SM BKN022 FM091800 34017G26KT P6SM BKN050 FM100100 01009KT P6SM BKN025
KRVS 
36nm W 
090520Z 0906/1006 18011G23KT P6SM BKN250 WS020/20050KT FM090800 24017G27KT P6SM BKN035 WS020/22050KT FM091000 28016G26KT P6SM VCTS BKN030CB FM091200 31015G25KT P6SM BKN022 FM091800 34017G26KT P6SM BKN050 FM100100 03008KT P6SM BKN025
NOTAMs
Click for the latest NOTAMs
NOTAMs are issued by the DoD/FAA and will open in a separate window not controlled by AirNav.

 

 
 

Would you like to see your business listed on this page?

 If your business provides an interesting product or service to pilots, flight crews, aircraft, or users of the Cedar Crest Heliport, you should consider listing it here.  To start the listing process, click on the button below
 
Add a business
 

Other Pages about Cedar Crest Heliport

Update a link
 
Copyright © AirNav, LLC. All rights reserved. Privacy Policy  Contact